createdAt,value
2022-12-09T00:01:31.343Z,7.63
2022-12-09T00:03:58.752Z,8.93
2022-12-09T00:06:28.076Z,9.27
2022-12-09T00:08:56.613Z,8.63
2022-12-09T00:11:24.879Z,8.93
2022-12-09T00:13:53.274Z,8.40
2022-12-09T00:16:21.180Z,8.77
2022-12-09T00:18:47.916Z,8.90
2022-12-09T00:21:15.272Z,8.43
2022-12-09T00:23:41.955Z,10.20
2022-12-09T00:26:08.558Z,8.47
2022-12-09T00:28:35.297Z,7.83
2022-12-09T00:31:02.641Z,8.00
2022-12-09T00:33:34.091Z,7.97
2022-12-09T00:36:09.857Z,7.60
2022-12-09T00:38:37.262Z,8.57
2022-12-09T00:41:04.583Z,8.03
2022-12-09T00:43:31.255Z,8.10
2022-12-09T00:45:58.174Z,8.13
2022-12-09T00:48:26.213Z,7.63
2022-12-09T00:50:52.931Z,8.03
2022-12-09T00:53:19.606Z,8.60
2022-12-09T00:55:46.315Z,8.43
2022-12-09T00:58:14.047Z,8.33
2022-12-09T01:00:41.032Z,7.70
2022-12-09T01:03:12.823Z,8.63
2022-12-09T01:05:40.358Z,8.50
2022-12-09T01:08:06.972Z,8.13
2022-12-09T01:10:34.418Z,8.10
2022-12-09T01:13:01.172Z,8.50
2022-12-09T01:15:27.913Z,9.03
2022-12-09T01:17:54.686Z,8.40
2022-12-09T01:20:21.282Z,8.43
2022-12-09T01:22:47.758Z,9.70
2022-12-09T01:25:14.664Z,8.73
2022-12-09T01:27:41.897Z,9.47
2022-12-09T01:30:11.915Z,9.70
2022-12-09T01:32:38.818Z,9.05
2022-12-09T01:35:06.181Z,9.13
2022-12-09T01:37:34.158Z,9.33
2022-12-09T01:40:00.837Z,8.77
2022-12-09T01:42:27.660Z,8.90
2022-12-09T01:45:22.071Z,9.40
2022-12-09T01:47:52.736Z,9.10
2022-12-09T01:50:19.576Z,8.60
2022-12-09T01:52:47.558Z,9.73
2022-12-09T01:55:14.665Z,8.83
2022-12-09T01:57:42.974Z,9.27
2022-12-09T02:00:10.391Z,8.30
2022-12-09T02:02:38.296Z,9.20
2022-12-09T02:05:05.980Z,9.43
2022-12-09T02:07:33.444Z,9.43
2022-12-09T02:10:00.286Z,9.17
2022-12-09T02:12:46.847Z,10.00
2022-12-09T02:15:30.827Z,9.17
2022-12-09T02:18:01.803Z,10.10
2022-12-09T02:20:38.816Z,8.83
2022-12-09T02:23:12.212Z,9.27
2022-12-09T02:26:07.382Z,9.33
2022-12-09T02:28:52.697Z,9.37
2022-12-09T02:31:40.786Z,8.63
2022-12-09T02:34:22.257Z,9.23
2022-12-09T02:37:16.971Z,9.57
2022-12-09T02:40:05.777Z,8.63
2022-12-09T02:42:35.863Z,10.00
2022-12-09T02:45:06.300Z,9.47
2022-12-09T02:47:36.851Z,9.43
2022-12-09T02:50:08.654Z,10.13
2022-12-09T02:52:35.926Z,9.30
2022-12-09T02:55:07.027Z,9.53
2022-12-09T02:57:36.036Z,9.90
2022-12-09T03:00:04.909Z,9.43
2022-12-09T03:02:35.929Z,9.30
2022-12-09T03:05:24.532Z,8.30
2022-12-09T03:08:46.739Z,8.40
2022-12-09T03:11:18.696Z,8.23
2022-12-09T03:14:04.495Z,9.13
2022-12-09T03:16:36.054Z,8.77
2022-12-09T03:19:20.706Z,8.97
2022-12-09T03:21:50.006Z,9.07
2022-12-09T03:24:20.827Z,8.83
2022-12-09T03:29:19.873Z,9.60
2022-12-09T03:31:48.643Z,9.40
2022-12-09T03:34:20.037Z,8.30
2022-12-09T03:36:49.364Z,9.07
2022-12-09T03:39:20.459Z,9.47
2022-12-09T03:41:55.650Z,9.50
2022-12-09T03:44:30.630Z,8.43
2022-12-09T03:46:57.783Z,8.30
2022-12-09T03:49:24.290Z,9.20
2022-12-09T03:51:57.342Z,9.10
2022-12-09T03:54:40.855Z,8.33
2022-12-09T03:57:17.031Z,8.50
2022-12-09T03:59:51.485Z,8.87
2022-12-09T04:02:18.503Z,7.57
2022-12-09T04:04:45.177Z,8.67
2022-12-09T04:07:11.922Z,8.30
2022-12-09T04:09:38.834Z,8.07
2022-12-09T04:12:05.587Z,7.93
2022-12-09T04:14:32.303Z,7.83
2022-12-09T04:16:59.408Z,7.80
2022-12-09T04:19:26.135Z,8.40
2022-12-09T04:21:52.788Z,8.47
2022-12-09T04:24:19.540Z,9.33
2022-12-09T04:26:46.815Z,8.17
2022-12-09T04:29:13.825Z,8.60
2022-12-09T04:31:40.593Z,8.03
2022-12-09T04:34:09.953Z,9.03
2022-12-09T04:36:37.318Z,9.07
2022-12-09T04:39:04.220Z,8.37
2022-12-09T04:41:31.018Z,8.07
2022-12-09T04:43:57.586Z,8.43
2022-12-09T04:46:24.161Z,8.47
2022-12-09T04:48:50.796Z,8.90
2022-12-09T04:51:18.281Z,9.70
2022-12-09T04:53:45.217Z,9.93
2022-12-09T04:56:16.529Z,9.87
2022-12-09T04:58:43.031Z,9.67
2022-12-09T05:01:13.230Z,9.97
2022-12-09T05:03:40.591Z,9.48
2022-12-09T05:06:11.007Z,9.33
2022-12-09T05:08:38.599Z,8.70
2022-12-09T05:11:06.239Z,9.73
2022-12-09T05:13:33.734Z,8.97
2022-12-09T05:16:09.290Z,9.47
2022-12-09T05:18:38.941Z,9.10
2022-12-09T05:21:09.929Z,9.47
2022-12-09T05:23:37.149Z,9.27
2022-12-09T05:26:10.051Z,9.00
2022-12-09T05:28:37.203Z,9.10
2022-12-09T05:31:06.436Z,8.83
2022-12-09T05:33:33.579Z,9.03
2022-12-09T05:36:00.660Z,8.23
2022-12-09T05:38:27.600Z,8.63
2022-12-09T05:40:54.733Z,8.93
2022-12-09T05:43:21.193Z,9.40
2022-12-09T05:45:47.903Z,8.73
2022-12-09T05:48:14.856Z,9.03
2022-12-09T05:50:41.672Z,9.20
2022-12-09T05:53:08.492Z,8.60
2022-12-09T05:55:35.087Z,8.53
2022-12-09T05:58:02.105Z,8.40
2022-12-09T06:00:28.626Z,9.50
2022-12-09T06:02:55.609Z,10.03
2022-12-09T06:05:22.847Z,13.23
2022-12-09T06:07:49.844Z,12.47
2022-12-09T06:10:17.369Z,13.67
2022-12-09T06:12:44.235Z,13.07
2022-12-09T06:15:12.756Z,12.70
2022-12-09T06:17:42.547Z,12.20
2022-12-09T06:20:09.918Z,12.07
2022-12-09T06:22:36.983Z,10.90
2022-12-09T06:25:04.549Z,10.33
2022-12-09T06:27:31.423Z,10.80
2022-12-09T06:29:58.347Z,11.10
2022-12-09T06:32:25.256Z,10.13
2022-12-09T06:34:52.251Z,10.13
2022-12-09T06:37:18.854Z,10.00
2022-12-09T06:39:45.732Z,10.17
2022-12-09T06:42:12.635Z,10.07
2022-12-09T06:44:38.949Z,11.00
2022-12-09T06:47:06.823Z,10.73
2022-12-09T06:49:33.737Z,9.30
2022-12-09T06:52:00.628Z,9.57
2022-12-09T06:54:27.832Z,10.73
2022-12-09T06:56:54.496Z,11.63
2022-12-09T06:59:21.235Z,10.90
2022-12-09T07:01:47.891Z,11.03
2022-12-09T07:04:15.041Z,12.63
2022-12-09T07:06:44.481Z,10.97
2022-12-09T07:09:13.908Z,11.73
2022-12-09T07:11:40.960Z,11.47
2022-12-09T07:14:07.600Z,12.47
2022-12-09T07:16:35.101Z,12.47
2022-12-09T07:19:02.802Z,11.80
2022-12-09T07:21:29.777Z,12.07
2022-12-09T07:24:00.239Z,14.07
2022-12-09T07:26:26.917Z,11.93
2022-12-09T07:28:53.777Z,12.67
2022-12-09T07:31:22.234Z,13.43
2022-12-09T07:33:49.993Z,14.03
2022-12-09T07:36:20.969Z,13.77
2022-12-09T07:38:48.293Z,14.30
2022-12-09T07:41:14.855Z,15.63
2022-12-09T07:43:41.607Z,15.97
2022-12-09T07:46:08.615Z,15.03
2022-12-09T07:48:36.008Z,14.17
2022-12-09T07:51:04.159Z,15.10
2022-12-09T07:53:35.244Z,15.00
2022-12-09T07:56:06.671Z,15.57
2022-12-09T07:58:34.272Z,14.70
2022-12-09T08:01:08.881Z,16.17
2022-12-09T08:03:36.712Z,17.87
2022-12-09T08:06:04.277Z,24.30
2022-12-09T08:08:32.984Z,26.03
2022-12-09T08:11:13.787Z,20.93
2022-12-09T08:13:41.143Z,19.50
2022-12-09T08:16:10.790Z,17.33
2022-12-09T08:18:38.200Z,15.80
2022-12-09T08:21:07.545Z,15.57
2022-12-09T08:23:34.400Z,15.10
2022-12-09T08:26:01.793Z,15.43
2022-12-09T08:28:29.869Z,15.20
2022-12-09T08:30:57.370Z,14.63
2022-12-09T08:33:25.407Z,15.90
2022-12-09T08:35:52.391Z,15.80
2022-12-09T08:38:19.187Z,14.60
2022-12-09T08:40:46.331Z,18.23
2022-12-09T08:43:12.862Z,17.00
2022-12-09T08:45:42.410Z,14.97
2022-12-09T08:48:09.579Z,15.77
2022-12-09T08:50:36.354Z,16.43
2022-12-09T08:53:03.270Z,14.60
2022-12-09T08:55:30.143Z,15.70
2022-12-09T08:57:57.320Z,17.07
2022-12-09T09:00:24.249Z,16.27
2022-12-09T09:02:51.050Z,15.30
2022-12-09T09:05:18.720Z,15.23
2022-12-09T09:07:45.782Z,16.30
2022-12-09T09:10:13.390Z,16.33
2022-12-09T09:12:43.613Z,15.40
2022-12-09T09:15:11.625Z,15.90
2022-12-09T09:17:38.626Z,14.47
2022-12-09T09:20:06.234Z,15.37
2022-12-09T09:22:35.307Z,16.17
2022-12-09T09:25:02.341Z,15.47
2022-12-09T09:27:29.212Z,14.67
2022-12-09T09:29:55.769Z,16.53
2022-12-09T09:32:22.436Z,16.27
2022-12-09T09:34:49.368Z,14.67
2022-12-09T09:37:17.130Z,16.00
2022-12-09T09:39:43.926Z,14.37
2022-12-09T09:42:17.269Z,14.47
2022-12-09T09:44:45.485Z,14.33
2022-12-09T09:47:16.808Z,15.57
2022-12-09T09:50:00.763Z,13.93
2022-12-09T09:52:29.798Z,14.40
2022-12-09T09:54:57.871Z,14.47
2022-12-09T09:57:33.305Z,13.63
2022-12-09T10:00:15.745Z,15.73
2022-12-09T10:02:51.415Z,15.87
2022-12-09T10:05:30.419Z,14.83
2022-12-09T10:08:20.917Z,15.77
2022-12-09T10:11:13.389Z,15.13
2022-12-09T10:13:48.421Z,16.53
2022-12-09T10:16:27.980Z,15.50
2022-12-09T10:19:09.785Z,15.20
2022-12-09T10:21:41.540Z,14.97
2022-12-09T10:24:20.601Z,14.00
2022-12-09T10:26:57.072Z,15.07
2022-12-09T10:29:35.742Z,15.20
2022-12-09T10:32:02.816Z,15.47
2022-12-09T10:34:30.315Z,15.50
2022-12-09T10:36:57.224Z,14.57
2022-12-09T10:39:23.604Z,14.67
2022-12-09T10:41:57.242Z,15.40
2022-12-09T10:44:25.507Z,17.17
2022-12-09T10:47:06.487Z,16.43
2022-12-09T10:49:35.912Z,16.60
2022-12-09T10:52:03.097Z,17.07
2022-12-09T10:54:36.499Z,18.90
2022-12-09T10:57:12.495Z,14.80
2022-12-09T10:59:40.861Z,16.50
2022-12-09T11:02:10.319Z,17.30
2022-12-09T11:04:40.562Z,13.23
2022-12-09T11:07:07.566Z,17.90
2022-12-09T11:09:37.852Z,17.33
2022-12-09T11:12:07.636Z,16.38
2022-12-09T11:14:40.545Z,17.00
2022-12-09T11:17:31.615Z,17.13
2022-12-09T11:22:45.892Z,16.67
2022-12-09T11:25:13.000Z,16.70
2022-12-09T11:27:41.469Z,16.90
2022-12-09T11:30:30.747Z,17.67
2022-12-09T11:33:06.243Z,17.23
2022-12-09T11:35:45.104Z,15.77
2022-12-09T11:38:34.602Z,17.97
2022-12-09T11:41:03.379Z,16.90
2022-12-09T11:43:35.251Z,17.23
2022-12-09T11:46:26.680Z,19.60
2022-12-09T11:48:55.445Z,17.20
2022-12-09T11:51:28.749Z,16.87
2022-12-09T11:54:18.875Z,17.10
2022-12-09T11:56:45.366Z,19.17
2022-12-09T11:59:15.207Z,19.20
2022-12-09T12:02:12.012Z,18.20
2022-12-09T12:04:46.413Z,19.10
2022-12-09T12:07:32.311Z,17.33
2022-12-09T12:09:58.843Z,19.00
2022-12-09T12:12:37.511Z,18.93
2022-12-09T12:15:16.454Z,18.90
2022-12-09T12:17:50.148Z,20.73
2022-12-09T12:20:16.676Z,19.40
2022-12-09T12:23:06.772Z,18.70
2022-12-09T12:25:44.527Z,19.20
2022-12-09T12:28:32.040Z,19.27
2022-12-09T12:31:27.410Z,19.73
2022-12-09T12:34:24.097Z,20.53
2022-12-09T12:37:43.208Z,18.67
2022-12-09T12:40:40.150Z,19.37
2022-12-09T12:43:27.797Z,18.37
2022-12-09T12:46:04.186Z,19.90
2022-12-09T12:49:15.857Z,18.27
2022-12-09T12:51:55.193Z,18.10
2022-12-09T12:54:30.438Z,19.80
2022-12-09T12:56:56.966Z,19.10
2022-12-09T12:59:56.263Z,20.80
2022-12-09T13:02:39.409Z,18.77
2022-12-09T13:05:22.113Z,20.07
2022-12-09T13:08:01.893Z,19.40
2022-12-09T13:10:40.375Z,18.73
2022-12-09T13:13:18.683Z,16.60
2022-12-09T13:15:50.137Z,20.00
2022-12-09T13:18:23.042Z,19.80
2022-12-09T13:20:58.160Z,19.93
2022-12-09T13:23:43.308Z,21.50
2022-12-09T13:26:39.767Z,20.03
2022-12-09T13:29:06.721Z,19.60
2022-12-09T13:31:36.820Z,19.40
2022-12-09T13:34:18.519Z,20.63
2022-12-09T13:36:47.732Z,19.60
2022-12-09T13:39:39.137Z,19.30
2022-12-09T13:42:25.891Z,21.80
2022-12-09T13:45:05.593Z,19.27
2022-12-09T13:47:36.467Z,19.23
2022-12-09T13:52:46.536Z,17.90
2022-12-09T13:55:47.115Z,19.20
2022-12-09T13:58:35.219Z,18.67
2022-12-09T14:01:04.677Z,18.37
2022-12-09T14:03:35.693Z,18.77
2022-12-09T14:06:15.614Z,20.52
2022-12-09T14:08:48.804Z,19.90
2022-12-09T14:11:36.990Z,19.60
2022-12-09T14:14:24.660Z,19.70
2022-12-09T14:16:56.935Z,18.33
2022-12-09T14:19:26.058Z,21.17
2022-12-09T14:22:17.708Z,20.10
2022-12-09T14:24:51.762Z,21.27
2022-12-09T14:27:32.139Z,22.47
2022-12-09T14:30:18.822Z,21.63
2022-12-09T14:32:56.010Z,21.57
2022-12-09T14:35:46.278Z,21.17
2022-12-09T14:39:22.465Z,22.20
2022-12-09T14:42:03.455Z,20.60
2022-12-09T14:45:03.071Z,24.50
2022-12-09T14:47:32.874Z,25.83
2022-12-09T14:50:14.478Z,24.60
2022-12-09T14:53:00.524Z,24.73
2022-12-09T14:55:29.013Z,26.73
2022-12-09T14:57:58.246Z,25.00
2022-12-09T15:00:37.033Z,24.93
2022-12-09T15:03:39.389Z,25.50
2022-12-09T15:06:13.098Z,25.30
2022-12-09T15:08:41.261Z,25.73
2022-12-09T15:11:18.245Z,26.00
2022-12-09T15:13:47.878Z,26.03
2022-12-09T15:16:18.092Z,26.70
2022-12-09T15:18:45.405Z,27.38
2022-12-09T15:21:26.349Z,26.73
2022-12-09T15:26:19.428Z,28.43
2022-12-09T15:28:50.667Z,26.67
2022-12-09T15:31:22.473Z,26.17
2022-12-09T15:33:51.586Z,27.73
2022-12-09T15:36:38.828Z,28.50
2022-12-09T15:39:07.514Z,28.20
2022-12-09T15:41:38.505Z,27.50
2022-12-09T15:44:11.132Z,26.77
2022-12-09T15:46:41.735Z,29.67
2022-12-09T15:49:11.904Z,27.50
2022-12-09T15:51:42.500Z,28.27
2022-12-09T15:54:14.786Z,27.30
2022-12-09T15:56:48.946Z,27.30
2022-12-09T15:59:37.069Z,28.40
2022-12-09T16:02:03.997Z,26.60
2022-12-09T16:04:37.935Z,27.60
2022-12-09T16:07:06.202Z,26.60
2022-12-09T16:09:32.948Z,30.27
2022-12-09T16:11:59.680Z,30.90
2022-12-09T16:14:26.342Z,28.50
2022-12-09T16:17:03.723Z,28.20
2022-12-09T16:19:33.120Z,28.20
2022-12-09T16:22:09.180Z,26.90
2022-12-09T16:25:13.132Z,28.23
2022-12-09T16:27:33.438Z,27.30
2022-12-09T16:30:12.615Z,26.65
2022-12-09T16:32:47.425Z,28.10
2022-12-09T16:35:16.846Z,28.27
2022-12-09T16:38:12.500Z,27.07
2022-12-09T16:40:45.175Z,28.03
2022-12-09T16:43:17.277Z,27.73
2022-12-09T16:46:05.035Z,26.93
2022-12-09T16:48:31.464Z,28.40
2022-12-09T16:51:10.926Z,29.37
2022-12-09T16:53:49.599Z,30.43
2022-12-09T16:56:27.957Z,30.10
2022-12-09T16:58:54.612Z,31.17
2022-12-09T17:01:24.546Z,29.97
2022-12-09T17:03:56.111Z,31.60
2022-12-09T17:06:22.438Z,41.27
2022-12-09T17:08:48.780Z,36.47
2022-12-09T17:11:15.227Z,33.80
2022-12-09T17:13:41.599Z,32.50
2022-12-09T17:16:08.535Z,29.93
2022-12-09T17:18:35.182Z,29.63
2022-12-09T17:21:19.728Z,29.40
2022-12-09T17:23:46.882Z,28.23
2022-12-09T17:26:15.828Z,29.10
2022-12-09T17:28:43.269Z,30.50
2022-12-09T17:31:13.150Z,28.77
2022-12-09T17:33:39.897Z,28.50
2022-12-09T17:36:07.256Z,29.47
2022-12-09T17:38:33.996Z,29.13
2022-12-09T17:41:09.247Z,29.53
2022-12-09T17:43:36.054Z,30.53
2022-12-09T17:46:04.752Z,30.67
2022-12-09T17:48:32.807Z,30.37
2022-12-09T17:50:59.208Z,30.50
2022-12-09T17:53:25.526Z,33.27
2022-12-09T17:55:51.850Z,29.83
2022-12-09T17:58:18.229Z,29.67
2022-12-09T18:00:44.715Z,31.57
2022-12-09T18:03:17.912Z,32.77
2022-12-09T18:05:48.680Z,32.57
2022-12-09T18:08:15.386Z,31.10
2022-12-09T18:10:41.809Z,30.93
2022-12-09T18:13:08.195Z,31.37
2022-12-09T18:15:36.564Z,31.80
2022-12-09T18:18:03.120Z,31.30
2022-12-09T18:20:29.563Z,29.80
2022-12-09T18:22:55.891Z,31.40
2022-12-09T18:25:22.219Z,29.97
2022-12-09T18:27:48.548Z,30.63
2022-12-09T18:30:14.872Z,31.23
2022-12-09T18:32:41.283Z,41.80
2022-12-09T18:35:08.009Z,39.20
2022-12-09T18:37:34.340Z,31.67
2022-12-09T18:40:00.854Z,34.23
2022-12-09T18:42:27.493Z,32.80
2022-12-09T18:44:54.226Z,35.20
2022-12-09T18:47:20.678Z,32.27
2022-12-09T18:49:47.191Z,31.40
2022-12-09T18:52:13.947Z,30.13
2022-12-09T18:54:40.550Z,29.17
2022-12-09T18:57:07.222Z,30.77
2022-12-09T18:59:33.623Z,32.27
2022-12-09T19:01:59.948Z,29.70
2022-12-09T19:04:28.676Z,31.13
2022-12-09T19:06:57.760Z,30.07
2022-12-09T19:09:30.372Z,33.73
2022-12-09T19:11:56.781Z,34.60
2022-12-09T19:14:23.738Z,33.83
2022-12-09T19:16:51.728Z,33.43
2022-12-09T19:19:22.636Z,32.87
2022-12-09T19:21:49.967Z,32.53
2022-12-09T19:24:22.437Z,30.87
2022-12-09T19:26:49.262Z,32.43
2022-12-09T19:29:16.151Z,31.37
2022-12-09T19:31:46.185Z,33.17
2022-12-09T19:34:16.070Z,34.85
2022-12-09T19:36:44.038Z,36.30
2022-12-09T19:39:12.163Z,33.67
2022-12-09T19:41:38.921Z,33.73
2022-12-09T19:44:05.730Z,34.57
2022-12-09T19:46:33.511Z,34.13
2022-12-09T19:49:00.596Z,35.10
2022-12-09T19:51:27.525Z,31.43
2022-12-09T19:53:56.270Z,31.13
2022-12-09T19:56:23.440Z,32.17
2022-12-09T19:58:50.437Z,30.47
2022-12-09T20:01:23.824Z,33.10
2022-12-09T20:04:13.647Z,34.13
2022-12-09T20:06:48.871Z,34.40
2022-12-09T20:09:17.184Z,33.87
2022-12-09T20:11:43.992Z,33.03
2022-12-09T20:14:13.153Z,33.27
2022-12-09T20:16:39.894Z,32.23
2022-12-09T20:19:06.459Z,31.10
2022-12-09T20:21:32.860Z,33.23
2022-12-09T20:24:01.365Z,33.20
2022-12-09T20:26:29.930Z,32.07
2022-12-09T20:28:57.889Z,32.03
2022-12-09T20:31:26.766Z,33.80
2022-12-09T20:34:01.704Z,31.50
2022-12-09T20:36:30.810Z,34.80
2022-12-09T20:38:59.858Z,33.23
2022-12-09T20:41:27.322Z,32.07
2022-12-09T20:43:59.274Z,32.67
2022-12-09T20:46:32.785Z,33.80
2022-12-09T20:49:00.757Z,33.73
2022-12-09T20:51:37.521Z,35.03
2022-12-09T20:54:04.572Z,33.90
2022-12-09T20:56:31.741Z,34.77
2022-12-09T20:58:58.633Z,34.97
2022-12-09T21:01:30.135Z,34.00
2022-12-09T21:03:58.463Z,32.77
2022-12-09T21:06:27.622Z,34.90
2022-12-09T21:08:53.953Z,34.87
2022-12-09T21:11:22.906Z,34.60
2022-12-09T21:13:51.881Z,33.70
2022-12-09T21:16:24.017Z,33.00
2022-12-09T21:18:51.848Z,31.27
2022-12-09T21:21:19.402Z,31.33
2022-12-09T21:23:46.826Z,33.67
2022-12-09T21:26:18.220Z,33.73
2022-12-09T21:28:46.299Z,34.30
2022-12-09T21:31:24.527Z,32.83
2022-12-09T21:33:53.243Z,31.57
2022-12-09T21:36:28.999Z,32.57
2022-12-09T21:38:55.985Z,32.27
2022-12-09T21:41:25.100Z,35.87
2022-12-09T21:43:52.295Z,31.20
2022-12-09T21:46:20.919Z,34.13
2022-12-09T21:48:52.040Z,34.37
2022-12-09T21:51:19.570Z,32.50
2022-12-09T21:53:46.280Z,34.37
2022-12-09T21:56:20.482Z,35.97
2022-12-09T21:58:49.058Z,34.27
2022-12-09T22:01:24.980Z,36.93
2022-12-09T22:03:51.855Z,34.80
2022-12-09T22:06:18.543Z,34.30
2022-12-09T22:08:45.623Z,33.63
2022-12-09T22:11:13.731Z,31.03
2022-12-09T22:13:40.367Z,33.80
2022-12-09T22:16:07.616Z,34.27
2022-12-09T22:18:34.534Z,39.20
2022-12-09T22:21:24.822Z,36.17
2022-12-09T22:23:58.031Z,32.27
2022-12-09T22:26:25.272Z,32.20
2022-12-09T22:28:52.193Z,33.10
2022-12-09T22:31:24.025Z,32.30
2022-12-09T22:33:52.781Z,33.80
2022-12-09T22:36:19.728Z,31.87
2022-12-09T22:38:46.717Z,32.30
2022-12-09T22:41:16.660Z,30.90
2022-12-09T22:43:43.556Z,31.67
2022-12-09T22:46:11.347Z,32.50
2022-12-09T22:48:39.398Z,29.93
2022-12-09T22:51:08.647Z,31.10
2022-12-09T22:53:35.385Z,30.70
2022-12-09T22:56:01.955Z,30.27
2022-12-09T22:58:28.511Z,30.20
2022-12-09T23:00:55.339Z,28.83
2022-12-09T23:03:21.737Z,29.70
2022-12-09T23:05:48.188Z,29.83
2022-12-09T23:08:14.976Z,29.63
2022-12-09T23:10:42.065Z,29.27
2022-12-09T23:13:08.680Z,28.33
2022-12-09T23:15:35.323Z,30.47
2022-12-09T23:18:01.882Z,28.23
2022-12-09T23:20:28.653Z,29.07
2022-12-09T23:22:55.187Z,28.97
2022-12-09T23:25:21.540Z,28.60
2022-12-09T23:27:47.852Z,32.27
2022-12-09T23:30:14.294Z,33.37
2022-12-09T23:32:40.656Z,33.87
2022-12-09T23:35:07.772Z,30.90
2022-12-09T23:37:34.327Z,36.53
2022-12-09T23:40:00.695Z,33.93
2022-12-09T23:42:27.098Z,32.80
2022-12-09T23:44:53.445Z,33.20
2022-12-09T23:47:19.872Z,32.97
2022-12-09T23:49:46.155Z,34.80
2022-12-09T23:52:12.484Z,34.63
2022-12-09T23:54:39.268Z,36.17
2022-12-09T23:57:05.667Z,36.43
2022-12-09T23:59:32.414Z,38.57
